| time (UTC) | temp C | wind direction | speed KPH | gust KPH | rain 1hr cm | rain 24hr cm | rain mn cm | humidity % | barometer mb |
| 20260906112801 | 20 | 182 | 0.0 | 0.0 | 0.00 | 0.00 | 0.00 | 99 | 1017.5 |
| 20260906112257 | 20 | 182 | 0.0 | 0.0 | 0.00 | 0.00 | 0.00 | 99 | 1017.5 |
| 20260906111756 | 20 | 182 | 0.0 | 0.0 | 0.00 | 0.00 | 0.00 | 99 | 1017.5 |
| 20260906111255 | 19 | 182 | 0.0 | 0.0 | 0.00 | 0.00 | 0.00 | 98 | 1017.5 |
| 20260906110751 | 20 | 182 | 0.0 | 0.0 | 0.00 | 0.00 | 0.00 | 98 | 1017.5 |
| 20260906110247 | 20 | 182 | 0.0 | 0.0 | 0.00 | 0.00 | 0.00 | 98 | 1017.2 |
| 20260906105745 | 20 | 182 | 0.0 | 0.0 | 0.00 | 0.00 | 0.00 | 98 | 1017.2 |
| 20260906105241 | 20 | 182 | 0.0 | 0.0 | 0.00 | 0.00 | 0.00 | 98 | 1017.2 |
| 20260906104737 | 20 | 182 | 1.6 | 1.6 | 0.00 | 0.00 | 0.00 | 98 | 1017.2 |
| 20260906104235 | 20 | 174 | 3.2 | 4.8 | 0.00 | 0.00 | 0.00 | 98 | 1017.2 |
| 20260906103733 | 20 | 172 | 0.0 | 1.6 | 0.00 | 0.00 | 0.00 | 98 | 1017.2 |
| 20260906103228 | 20 | 172 | 0.0 | 1.6 | 0.00 | 0.00 | 0.00 | 97 | 1017.2 |
| 20260906102723 | 20 | 172 | 4.8 | 4.8 | 0.00 | 0.00 | 0.00 | 97 | 1017.2 |
| 20260906102223 | 20 | 172 | 3.2 | 3.2 | 0.00 | 0.00 | 0.00 | 97 | 1016.8 |
| 20260906101718 | 20 | 172 | 3.2 | 3.2 | 0.00 | 0.00 | 0.00 | 97 | 1016.8 |
| 20260906101213 | 20 | 168 | 3.2 | 4.8 | 0.00 | 0.00 | 0.00 | 97 | 1017.2 |
| 20260906100708 | 20 | 166 | 1.6 | 1.6 | 0.00 | 0.00 | 0.00 | 97 | 1017.2 |
| 20260906100208 | 20 | 165 | 1.6 | 3.2 | 0.00 | 0.00 | 0.00 | 97 | 1016.8 |
| 20260906095703 | 21 | 165 | 0.0 | 1.6 | 0.00 | 0.00 | 0.00 | 96 | 1016.8 |
| 20260906095158 | 21 | 165 | 1.6 | 1.6 | 0.00 | 0.00 | 0.00 | 96 | 1016.8 |
| 20260906094657 | 21 | 165 | 4.8 | 4.8 | 0.00 | 0.00 | 0.00 | 96 | 1016.8 |
| 20260906094153 | 21 | 162 | 1.6 | 1.6 | 0.00 | 0.00 | 0.00 | 96 | 1016.8 |
| 20260906093649 | 21 | 162 | 3.2 | 3.2 | 0.00 | 0.00 | 0.00 | 96 | 1016.8 |
| 20260906093144 | 21 | 161 | 3.2 | 3.2 | 0.00 | 0.00 | 0.00 | 96 | 1016.8 |
| 20260906092639 | 21 | 160 | 0.0 | 1.6 | 0.00 | 0.00 | 0.00 | 97 | 1016.8 |
| 20260906092138 | 21 | 160 | 1.6 | 1.6 | 0.00 | 0.00 | 0.00 | 97 | 1016.8 |
| 20260906091635 | 21 | 160 | 0.0 | 0.0 | 0.00 | 0.00 | 0.00 | 97 | 1016.4 |
| 20260906091131 | 21 | 160 | 0.0 | 0.0 | 0.00 | 0.00 | 0.00 | 96 | 1016.8 |
| 20260906090627 | 21 | 160 | 0.0 | 1.6 | 0.00 | 0.00 | 0.00 | 96 | 1016.4 |
| 20260906090126 | 21 | 160 | 0.0 | 0.0 | 0.00 | 0.00 | 0.00 | 96 | 1016.4 |
| 20260906085625 | 21 | 160 | 0.0 | 1.6 | 0.00 | 0.00 | 0.00 | 96 | 1016.4 |
| 20260906085120 | 21 | 160 | 0.0 | 0.0 | 0.00 | 0.00 | 0.00 | 96 | 1016.8 |
| 20260906084614 | 21 | 160 | 0.0 | 0.0 | 0.00 | 0.00 | 0.00 | 96 | 1016.8 |
| 20260906084113 | 21 | 160 | 0.0 | 0.0 | 0.00 | 0.00 | 0.00 | 96 | 1016.8 |
| 20260906083609 | 21 | 160 | 0.0 | 0.0 | 0.00 | 0.00 | 0.00 | 96 | 1016.4 |
| 20260906083109 | 21 | 160 | 1.6 | 3.2 | 0.00 | 0.00 | 0.00 | 96 | 1016.8 |
| 20260906082604 | 21 | 155 | 0.0 | 1.6 | 0.00 | 0.00 | 0.00 | 96 | 1016.4 |
| 20260906082100 | 21 | 155 | 1.6 | 1.6 | 0.00 | 0.00 | 0.00 | 95 | 1016.8 |
| 20260906081555 | 21 | 155 | 1.6 | 1.6 | 0.00 | 0.00 | 0.00 | 95 | 1016.8 |
| 20260906081050 | 22 | 156 | 0.0 | 1.6 | 0.00 | 0.00 | 0.00 | 95 | 1016.8 |
| 20260906080548 | 22 | 156 | 1.6 | 3.2 | 0.00 | 0.00 | 0.00 | 94 | 1016.8 |
| 20260906080043 | 22 | 182 | 1.6 | 1.6 | 0.00 | 0.00 | 0.00 | 94 | 1016.8 |
| 20260906075543 | 22 | 183 | 0.0 | 1.6 | 0.00 | 0.00 | 0.00 | 94 | 1016.8 |
| 20260906075038 | 22 | 184 | 0.0 | 1.6 | 0.00 | 0.00 | 0.00 | 94 | 1016.8 |
| 20260906074532 | 22 | 207 | 0.0 | 0.0 | 0.00 | 0.00 | 0.00 | 94 | 1016.8 |
| 20260906074031 | 22 | 209 | 1.6 | 1.6 | 0.00 | 0.00 | 0.00 | 94 | 1016.8 |
| 20260906073526 | 22 | 165 | 1.6 | 1.6 | 0.00 | 0.00 | 0.00 | 94 | 1016.8 |
| 20260906073022 | 22 | 165 | 0.0 | 1.6 | 0.00 | 0.00 | 0.00 | 94 | 1016.8 |
| 20260906072517 | 22 | 165 | 0.0 | 1.6 | 0.00 | 0.00 | 0.00 | 94 | 1017.2 |
| 20260906072014 | 22 | 166 | 0.0 | 1.6 | 0.00 | 0.00 | 0.00 | 94 | 1017.2 |
| 20260906071509 | 22 | 166 | 0.0 | 1.6 | 0.00 | 0.00 | 0.00 | 93 | 1016.8 |
| 20260906071004 | 22 | 196 | 1.6 | 1.6 | 0.00 | 0.00 | 0.00 | 94 | 1016.8 |
| 20260906070501 | 22 | 196 | 1.6 | 1.6 | 0.00 | 0.00 | 0.00 | 94 | 1016.4 |
| 20260906065956 | 22 | 196 | 1.6 | 4.8 | 0.00 | 0.00 | 0.00 | 94 | 1016.8 |
| 20260906065455 | 22 | 168 | 0.0 | 1.6 | 0.00 | 0.00 | 0.00 | 95 | 1016.4 |
| 20260906064951 | 22 | 182 | 1.6 | 1.6 | 0.00 | 0.00 | 0.00 | 95 | 1016.8 |
| 20260906064448 | 22 | 182 | 4.8 | 4.8 | 0.00 | 0.00 | 0.00 | 96 | 1016.8 |
| 20260906063948 | 22 | 137 | 4.8 | 8.0 | 0.00 | 0.00 | 0.00 | 96 | 1016.8 |
| 20260906063443 | 22 | 102 | 4.8 | 4.8 | 0.00 | 0.00 | 0.00 | 96 | 1016.8 |
| 20260906062943 | 22 | 92 | 1.6 | 1.6 | 0.00 | 0.00 | 0.00 | 96 | 1016.8 |
| 20260906062439 | 22 | 92 | 1.6 | 1.6 | 0.00 | 0.00 | 0.00 | 96 | 1016.8 |
| 20260906061933 | 22 | 92 | 3.2 | 3.2 | 0.00 | 0.00 | 0.00 | 96 | 1016.8 |
| 20260906061430 | 22 | 92 | 0.0 | 0.0 | 0.00 | 0.00 | 0.00 | 96 | 1016.8 |
| 20260906060924 | 22 | 92 | 1.6 | 3.2 | 0.00 | 0.00 | 0.00 | 97 | 1016.8 |
| 20260906060421 | 22 | 92 | 3.2 | 3.2 | 0.00 | 0.00 | 0.00 | 96 | 1016.8 |
| 20260906055917 | 22 | 84 | 1.6 | 1.6 | 0.00 | 0.00 | 0.00 | 96 | 1016.4 |
| 20260906055413 | 22 | 84 | 0.0 | 1.6 | 0.00 | 0.00 | 0.00 | 96 | 1016.4 |
| 20260906054908 | 22 | 83 | 1.6 | 3.2 | 0.00 | 0.00 | 0.00 | 97 | 1016.8 |
| 20260906054402 | 22 | 85 | 1.6 | 1.6 | 0.00 | 0.00 | 0.00 | 97 | 1016.4 |
| 20260906053859 | 22 | 84 | 3.2 | 4.8 | 0.00 | 0.00 | 0.00 | 97 | 1016.4 |
| 20260906053354 | 22 | 82 | 1.6 | 3.2 | 0.00 | 0.00 | 0.00 | 97 | 1016.4 |
| 20260906052850 | 22 | 84 | 4.8 | 4.8 | 0.00 | 0.00 | 0.00 | 97 | 1016.4 |
| 20260906052346 | 22 | 86 | 8.0 | 9.7 | 0.00 | 0.00 | 0.00 | 98 | 1016.4 |
| 20260906051843 | 22 | 81 | 1.6 | 1.6 | 0.00 | 0.00 | 0.00 | 98 | 1016.4 |
| 20260906051342 | 21 | 83 | 3.2 | 3.2 | 0.00 | 0.00 | 0.00 | 98 | 1016.1 |
| 20260906050838 | 21 | 77 | 0.0 | 1.6 | 0.00 | 0.00 | 0.00 | 98 | 1016.1 |
| 20260906050333 | 21 | 77 | 1.6 | 1.6 | 0.00 | 0.00 | 0.00 | 98 | 1016.1 |
| 20260906045832 | 21 | 98 | 0.0 | 0.0 | 0.00 | 0.00 | 0.00 | 98 | 1016.1 |
| 20260906045326 | 21 | 98 | 1.6 | 1.6 | 0.00 | 0.00 | 0.00 | 98 | 1016.1 |
| 20260906044823 | 21 | 99 | 0.0 | 1.6 | 0.00 | 0.00 | 0.00 | 98 | 1015.7 |
| 20260906044323 | 21 | 96 | 1.6 | 1.6 | 0.00 | 0.00 | 0.00 | 98 | 1015.7 |
| 20260906043819 | 21 | 96 | 0.0 | 1.6 | 0.00 | 0.00 | 0.00 | 98 | 1015.7 |
| 20260906043315 | 21 | 97 | 1.6 | 3.2 | 0.00 | 0.00 | 0.00 | 98 | 1015.7 |
| 20260906042814 | 21 | 93 | 1.6 | 1.6 | 0.00 | 0.00 | 0.00 | 97 | 1015.7 |
| 20260906042313 | 21 | 91 | 1.6 | 3.2 | 0.00 | 0.00 | 0.00 | 97 | 1015.7 |
| 20260906041809 | 21 | 92 | 3.2 | 3.2 | 0.00 | 0.00 | 0.00 | 97 | 1015.4 |
| 20260906041304 | 21 | 83 | 0.0 | 1.6 | 0.00 | 0.00 | 0.00 | 96 | 1015.4 |
| 20260906040759 | 21 | 84 | 1.6 | 3.2 | 0.00 | 0.00 | 0.00 | 96 | 1015.4 |
| 20260906040255 | 21 | 86 | 4.8 | 4.8 | 0.00 | 0.00 | 0.00 | 96 | 1015.7 |
| 20260906035750 | 21 | 82 | 4.8 | 9.7 | 0.00 | 0.00 | 0.00 | 96 | 1015.7 |
| 20260906035245 | 21 | 77 | 3.2 | 4.8 | 0.00 | 0.00 | 0.00 | 95 | 1015.4 |
| 20260906034740 | 21 | 83 | 4.8 | 4.8 | 0.00 | 0.00 | 0.00 | 95 | 1015.4 |
| 20260906034235 | 21 | 89 | 4.8 | 4.8 | 0.00 | 0.00 | 0.00 | 95 | 1015.4 |
| 20260906033731 | 21 | 78 | 4.8 | 8.0 | 0.00 | 0.00 | 0.00 | 95 | 1015.4 |
| 20260906033230 | 22 | 80 | 4.8 | 4.8 | 0.00 | 0.00 | 0.00 | 94 | 1015.4 |
| 20260906032727 | 22 | 79 | 4.8 | 8.0 | 0.00 | 0.00 | 0.00 | 94 | 1015.7 |
| 20260906032226 | 22 | 81 | 3.2 | 3.2 | 0.00 | 0.00 | 0.00 | 94 | 1015.7 |
| 20260906031721 | 22 | 69 | 3.2 | 3.2 | 0.00 | 0.00 | 0.00 | 94 | 1015.4 |
| 20260906031217 | 22 | 91 | 4.8 | 4.8 | 0.00 | 0.00 | 0.00 | 93 | 1015.4 |
| 20260906030717 | 22 | 89 | 1.6 | 1.6 | 0.00 | 0.00 | 0.00 | 93 | 1015.4 |
| 20260906030212 | 22 | 96 | 3.2 | 3.2 | 0.00 | 0.00 | 0.00 | 93 | 1015.4 |
| 20260906025711 | 22 | 101 | 3.2 | 4.8 | 0.00 | 0.00 | 0.00 | 92 | 1015.7 |
| 20260906025206 | 22 | 77 | 4.8 | 4.8 | 0.00 | 0.00 | 0.00 | 92 | 1015.7 |
| 20260906024705 | 22 | 80 | 6.4 | 11.3 | 0.00 | 0.00 | 0.00 | 92 | 1016.1 |
| 20260906024205 | 22 | 100 | 6.4 | 8.0 | 0.00 | 0.00 | 0.00 | 92 | 1015.7 |
| 20260906023701 | 22 | 84 | 4.8 | 4.8 | 0.00 | 0.00 | 0.00 | 92 | 1016.1 |
| 20260906023200 | 22 | 100 | 3.2 | 4.8 | 0.00 | 0.00 | 0.00 | 92 | 1015.7 |
| 20260906022655 | 22 | 93 | 8.0 | 11.3 | 0.00 | 0.00 | 0.00 | 92 | 1015.7 |
| 20260906022151 | 22 | 103 | 3.2 | 4.8 | 0.00 | 0.00 | 0.00 | 92 | 1015.7 |
| 20260906021647 | 22 | 95 | 8.0 | 9.7 | 0.00 | 0.00 | 0.00 | 91 | 1015.7 |
| 20260906021146 | 22 | 79 | 6.4 | 8.0 | 0.00 | 0.00 | 0.00 | 91 | 1015.7 |
| 20260906020641 | 22 | 111 | 4.8 | 8.0 | 0.00 | 0.00 | 0.00 | 91 | 1016.1 |
| 20260906020135 | 22 | 98 | 9.7 | 14.5 | 0.00 | 0.00 | 0.00 | 91 | 1015.7 |
| 20260906015630 | 22 | 81 | 6.4 | 9.7 | 0.00 | 0.00 | 0.00 | 90 | 1015.7 |
| 20260906015129 | 22 | 103 | 6.4 | 8.0 | 0.00 | 0.00 | 0.00 | 90 | 1015.7 |
| 20260906014628 | 22 | 80 | 6.4 | 11.3 | 0.00 | 0.00 | 0.00 | 89 | 1015.7 |
| 20260906014125 | 22 | 118 | 11.3 | 12.9 | 0.00 | 0.00 | 0.00 | 89 | 1015.7 |
| 20260906013620 | 22 | 92 | 3.2 | 4.8 | 0.00 | 0.00 | 0.00 | 89 | 1015.7 |
| 20260906013116 | 22 | 93 | 4.8 | 11.3 | 0.00 | 0.00 | 0.00 | 88 | 1016.1 |
| 20260906012610 | 22 | 90 | 8.0 | 12.9 | 0.00 | 0.00 | 0.00 | 88 | 1016.1 |
| 20260906012105 | 22 | 82 | 4.8 | 8.0 | 0.00 | 0.00 | 0.00 | 88 | 1015.7 |
| 20260906011601 | 23 | 97 | 6.4 | 8.0 | 0.00 | 0.00 | 0.00 | 88 | 1015.7 |
| 20260906011100 | 23 | 76 | 4.8 | 8.0 | 0.00 | 0.00 | 0.00 | 88 | 1015.4 |
| 20260906010556 | 23 | 90 | 8.0 | 11.3 | 0.00 | 0.00 | 0.00 | 90 | 1015.4 |
| 20260906010052 | 23 | 83 | 6.4 | 9.7 | 0.00 | 0.00 | 0.00 | 89 | 1015.4 |
| 20260906005551 | 23 | 92 | 8.0 | 11.3 | 0.00 | 0.00 | 0.00 | 90 | 1015.4 |
| 20260906005050 | 23 | 84 | 6.4 | 9.7 | 0.00 | 0.00 | 0.00 | 90 | 1015.0 |
| 20260906004550 | 23 | 94 | 11.3 | 12.9 | 0.00 | 0.00 | 0.00 | 90 | 1014.7 |
| 20260906004045 | 23 | 89 | 3.2 | 3.2 | 0.00 | 0.00 | 0.00 | 90 | 1015.0 |
| 20260906003540 | 23 | 118 | 4.8 | 4.8 | 0.00 | 0.00 | 0.00 | 90 | 1014.7 |
| 20260906003036 | 23 | 89 | 3.2 | 3.2 | 0.00 | 0.00 | 0.00 | 90 | 1014.7 |
| 20260906002531 | 23 | 104 | 3.2 | 8.0 | 0.00 | 0.00 | 0.00 | 89 | 1014.7 |
| 20260906002025 | 23 | 95 | 9.7 | 11.3 | 0.00 | 0.00 | 0.00 | 89 | 1014.7 |
| 20260906001521 | 23 | 102 | 3.2 | 4.8 | 0.00 | 0.00 | 0.00 | 89 | 1014.7 |
| 20260906001021 | 23 | 114 | 6.4 | 8.0 | 0.00 | 0.00 | 0.00 | 88 | 1014.7 |
| 20260906000517 | 23 | 92 | 4.8 | 4.8 | 0.00 | 0.00 | 0.00 | 88 | 1015.0 |
| 20260906000012 | 24 | 100 | 3.2 | 3.2 | 0.00 | 0.00 | 0.00 | 88 | 1014.7 |
| 20260905235511 | 24 | 107 | 3.2 | 3.2 | 0.00 | 0.00 | 0.00 | 87 | 1014.7 |
| 20260905235007 | 24 | 93 | 3.2 | 4.8 | 0.00 | 0.00 | 0.00 | 87 | 1014.7 |
| 20260905234503 | 25 | 99 | 3.2 | 4.8 | 0.00 | 0.00 | 0.00 | 86 | 1015.0 |
| 20260905234002 | 25 | 114 | 8.0 | 9.7 | 0.00 | 0.00 | 0.00 | 86 | 1014.7 |
| 20260905233458 | 25 | 95 | 4.8 | 8.0 | 0.00 | 0.00 | 0.00 | 86 | 1014.7 |
| 20260905232956 | 25 | 79 | 4.8 | 4.8 | 0.00 | 0.00 | 0.00 | 85 | 1014.7 |
| 20260905232453 | 25 | 93 | 4.8 | 4.8 | 0.00 | 0.00 | 0.00 | 84 | 1014.7 |
| 20260905231948 | 25 | 78 | 6.4 | 9.7 | 0.00 | 0.00 | 0.00 | 84 | 1014.4 |
| 20260905231444 | 25 | 103 | 3.2 | 9.7 | 0.00 | 0.00 | 0.00 | 84 | 1014.4 |
| 20260905230940 | 26 | 113 | 3.2 | 8.0 | 0.00 | 0.00 | 0.00 | 83 | 1014.4 |
| 20260905230438 | 26 | 67 | 4.8 | 8.0 | 0.00 | 0.00 | 0.00 | 83 | 1014.0 |
| 20260905225937 | 26 | 98 | 4.8 | 8.0 | 0.00 | 0.00 | 0.00 | 82 | 1014.4 |
| 20260905225432 | 26 | 98 | 3.2 | 3.2 | 0.00 | 0.00 | 0.00 | 82 | 1014.4 |
| 20260905224927 | 26 | 81 | 8.0 | 12.9 | 0.00 | 0.00 | 0.00 | 81 | 1014.4 |
| 20260905224423 | 26 | 112 | 4.8 | 8.0 | 0.00 | 0.00 | 0.00 | 81 | 1014.0 |
| 20260905223922 | 27 | 56 | 4.8 | 8.0 | 0.00 | 0.00 | 0.00 | 80 | 1014.4 |
| 20260905223421 | 27 | 115 | 4.8 | 4.8 | 0.00 | 0.00 | 0.00 | 80 | 1013.7 |
| 20260905222920 | 26 | 92 | 4.8 | 4.8 | 0.00 | 0.00 | 0.00 | 81 | 1014.4 |
| 20260905222420 | 27 | 114 | 9.7 | 14.5 | 0.00 | 0.00 | 0.00 | 80 | 1014.4 |
| 20260905221916 | 27 | 88 | 3.2 | 3.2 | 0.00 | 0.00 | 0.00 | 80 | 1014.0 |
| 20260905221412 | 27 | 100 | 6.4 | 9.7 | 0.00 | 0.00 | 0.00 | 80 | 1014.4 |
| 20260905220908 | 27 | 100 | 9.7 | 12.9 | 0.00 | 0.00 | 0.00 | 80 | 1014.4 |
| 20260905220404 | 26 | 91 | 4.8 | 8.0 | 0.00 | 0.00 | 0.00 | 82 | 1014.0 |
| 20260905215903 | 27 | 97 | 6.4 | 9.7 | 0.00 | 0.00 | 0.00 | 81 | 1014.0 |
| 20260905215359 | 27 | 108 | 9.7 | 12.9 | 0.00 | 0.00 | 0.00 | 80 | 1014.0 |
| 20260905214855 | 28 | 93 | 4.8 | 8.0 | 0.00 | 0.00 | 0.00 | 78 | 1014.0 |
| 20260905214350 | 28 | 110 | 4.8 | 4.8 | 0.00 | 0.00 | 0.00 | 78 | 1014.0 |
| 20260905213845 | 28 | 95 | 6.4 | 8.0 | 0.00 | 0.00 | 0.00 | 78 | 1013.7 |
| 20260905213342 | 28 | 112 | 8.0 | 9.7 | 0.00 | 0.00 | 0.00 | 77 | 1013.7 |
| 20260905212841 | 28 | 102 | 4.8 | 8.0 | 0.00 | 0.00 | 0.00 | 77 | 1013.7 |
| 20260905212336 | 28 | 95 | 8.0 | 9.7 | 0.00 | 0.00 | 0.00 | 77 | 1014.0 |
| 20260905211835 | 28 | 91 | 6.4 | 9.7 | 0.00 | 0.00 | 0.00 | 76 | 1013.7 |
| 20260905211332 | 28 | 101 | 8.0 | 11.3 | 0.00 | 0.00 | 0.00 | 76 | 1013.7 |
| 20260905210828 | 28 | 97 | 6.4 | 8.0 | 0.00 | 0.00 | 0.00 | 76 | 1013.7 |
| 20260905210327 | 28 | 83 | 11.3 | 14.5 | 0.00 | 0.00 | 0.00 | 75 | 1013.7 |
| 20260905205826 | 28 | 106 | 4.8 | 8.0 | 0.00 | 0.00 | 0.00 | 75 | 1014.0 |
| 20260905205321 | 28 | 76 | 11.3 | 14.5 | 0.00 | 0.00 | 0.00 | 76 | 1013.7 |
| 20260905204820 | 28 | 80 | 4.8 | 8.0 | 0.00 | 0.00 | 0.00 | 76 | 1013.7 |
| 20260905204317 | 29 | 44 | 6.4 | 9.7 | 0.00 | 0.00 | 0.00 | 75 | 1014.0 |
| 20260905203815 | 28 | 62 | 6.4 | 9.7 | 0.00 | 0.00 | 0.00 | 76 | 1013.7 |
| 20260905203312 | 28 | 106 | 6.4 | 8.0 | 0.00 | 0.00 | 0.00 | 76 | 1014.0 |
| 20260905202807 | 28 | 107 | 4.8 | 12.9 | 0.00 | 0.00 | 0.00 | 76 | 1013.7 |
| 20260905202302 | 29 | 116 | 6.4 | 9.7 | 0.00 | 0.00 | 0.00 | 76 | 1014.0 |
| 20260905201758 | 28 | 103 | 8.0 | 11.3 | 0.00 | 0.00 | 0.00 | 76 | 1014.0 |
| 20260905200753 | 30 | 116 | 6.4 | 9.7 | 0.00 | 0.00 | 0.00 | 74 | 1013.7 |
| 20260905200249 | 30 | 78 | 1.6 | 1.6 | 0.00 | 0.00 | 0.00 | 74 | 1013.7 |
| 20260905195746 | 29 | 107 | 3.2 | 4.8 | 0.00 | 0.00 | 0.00 | 73 | 1013.7 |
| 20260905195242 | 30 | 101 | 3.2 | 4.8 | 0.00 | 0.00 | 0.00 | 74 | 1013.7 |
| 20260905194737 | 30 | 120 | 4.8 | 8.0 | 0.00 | 0.00 | 0.00 | 73 | 1013.7 |
| 20260905194237 | 30 | 101 | 6.4 | 8.0 | 0.00 | 0.00 | 0.00 | 74 | 1013.7 |
| 20260905193736 | 29 | 102 | 4.8 | 4.8 | 0.00 | 0.00 | 0.00 | 75 | 1013.7 |
| 20260905193231 | 30 | 105 | 4.8 | 9.7 | 0.00 | 0.00 | 0.00 | 72 | 1013.7 |
| 20260905192727 | 31 | 132 | 8.0 | 9.7 | 0.00 | 0.00 | 0.00 | 71 | 1013.7 |
| 20260905192223 | 30 | 199 | 8.0 | 11.3 | 0.00 | 0.00 | 0.00 | 72 | 1013.7 |
| 20260905191722 | 31 | 149 | 0.0 | 1.6 | 0.00 | 0.00 | 0.00 | 72 | 1014.0 |
| 20260905191220 | 31 | 83 | 4.8 | 4.8 | 0.00 | 0.00 | 0.00 | 71 | 1013.7 |
| 20260905190720 | 30 | 156 | 8.0 | 11.3 | 0.00 | 0.00 | 0.00 | 72 | 1013.7 |
| 20260905190218 | 30 | 105 | 6.4 | 9.7 | 0.00 | 0.00 | 0.00 | 72 | 1013.7 |
| 20260905185718 | 30 | 75 | 6.4 | 9.7 | 0.00 | 0.00 | 0.00 | 74 | 1014.0 |
| 20260905185213 | 30 | 95 | 4.8 | 8.0 | 0.00 | 0.00 | 0.00 | 75 | 1013.7 |
| 20260905184707 | 30 | 99 | 3.2 | 3.2 | 0.00 | 0.00 | 0.00 | 74 | 1014.0 |
| 20260905184206 | 30 | 76 | 14.5 | 17.7 | 0.00 | 0.00 | 0.00 | 74 | 1013.7 |
| 20260905183706 | 30 | 106 | 4.8 | 4.8 | 0.00 | 0.00 | 0.00 | 74 | 1013.7 |
| 20260905183201 | 30 | 96 | 8.0 | 11.3 | 0.00 | 0.00 | 0.00 | 75 | 1014.0 |
| 20260905182701 | 31 | 101 | 4.8 | 4.8 | 0.00 | 0.00 | 0.00 | 75 | 1014.0 |
| 20260905182200 | 30 | 83 | 8.0 | 11.3 | 0.00 | 0.00 | 0.00 | 75 | 1014.0 |
| 20260905181656 | 30 | 88 | 11.3 | 14.5 | 0.00 | 0.00 | 0.00 | 77 | 1013.7 |
| 20260905181155 | 30 | 100 | 6.4 | 9.7 | 0.00 | 0.00 | 0.00 | 78 | 1014.0 |
| 20260905180649 | 30 | 82 | 11.3 | 12.9 | 0.00 | 0.00 | 0.00 | 75 | 1014.0 |
| 20260905180145 | 30 | 95 | 1.6 | 3.2 | 0.00 | 0.00 | 0.00 | 76 | 1014.0 |
| 20260905175644 | 31 | 103 | 4.8 | 4.8 | 0.00 | 0.00 | 0.00 | 77 | 1014.0 |
| 20260905175139 | 30 | 109 | 3.2 | 4.8 | 0.00 | 0.00 | 0.00 | 76 | 1014.0 |
| 20260905174635 | 31 | 141 | 3.2 | 3.2 | 0.00 | 0.00 | 0.00 | 74 | 1014.0 |
| 20260905174130 | 30 | 89 | 8.0 | 9.7 | 0.00 | 0.00 | 0.00 | 77 | 1014.0 |
| 20260905173626 | 30 | 74 | 4.8 | 8.0 | 0.00 | 0.00 | 0.00 | 78 | 1013.7 |
| 20260905173122 | 30 | 95 | 1.6 | 3.2 | 0.00 | 0.00 | 0.00 | 78 | 1014.0 |
| 20260905172621 | 30 | 117 | 1.6 | 3.2 | 0.00 | 0.00 | 0.00 | 78 | 1014.4 |
| 20260905172116 | 30 | 89 | 6.4 | 9.7 | 0.00 | 0.00 | 0.00 | 80 | 1014.0 |
| 20260905171612 | 31 | 77 | 1.6 | 3.2 | 0.00 | 0.00 | 0.00 | 78 | 1014.0 |
| 20260905171108 | 30 | 116 | 1.6 | 3.2 | 0.00 | 0.00 | 0.00 | 76 | 1014.0 |
| 20260905170604 | 30 | 81 | 11.3 | 12.9 | 0.00 | 0.00 | 0.00 | 77 | 1014.0 |
| 20260905170100 | 31 | 99 | 4.8 | 9.7 | 0.00 | 0.00 | 0.00 | 77 | 1014.0 |
| 20260905165600 | 30 | 117 | 4.8 | 8.0 | 0.00 | 0.00 | 0.00 | 77 | 1014.0 |
| 20260905165055 | 30 | 113 | 4.8 | 8.0 | 0.00 | 0.00 | 0.00 | 80 | 1014.4 |
| 20260905164549 | 30 | 95 | 4.8 | 14.5 | 0.00 | 0.00 | 0.00 | 79 | 1014.4 |
| 20260905164044 | 30 | 80 | 8.0 | 9.7 | 0.00 | 0.00 | 0.00 | 79 | 1014.4 |
| 20260905163540 | 30 | 91 | 4.8 | 8.0 | 0.00 | 0.00 | 0.00 | 81 | 1014.0 |
| 20260905163036 | 31 | 100 | 9.7 | 11.3 | 0.00 | 0.00 | 0.00 | 80 | 1014.7 |
| 20260905162532 | 31 | 98 | 8.0 | 11.3 | 0.00 | 0.00 | 0.00 | 79 | 1014.4 |
| 20260905162026 | 31 | 112 | 8.0 | 9.7 | 0.00 | 0.00 | 0.00 | 77 | 1014.4 |
| 20260905161526 | 31 | 221 | 6.4 | 9.7 | 0.00 | 0.00 | 0.00 | 77 | 1014.4 |
| 20260905161024 | 30 | 95 | 4.8 | 4.8 | 0.00 | 0.00 | 0.00 | 79 | 1014.4 |
| 20260905160523 | 30 | 112 | 6.4 | 9.7 | 0.00 | 0.00 | 0.00 | 81 | 1014.4 |
| 20260905160017 | 30 | 93 | 6.4 | 8.0 | 0.00 | 0.00 | 0.00 | 81 | 1014.0 |
| 20260905155517 | 30 | 94 | 3.2 | 3.2 | 0.00 | 0.00 | 0.00 | 82 | 1014.0 |
| 20260905155015 | 30 | 104 | 1.6 | 3.2 | 0.00 | 0.00 | 0.00 | 79 | 1014.0 |
| 20260905154511 | 30 | 108 | 3.2 | 4.8 | 0.00 | 0.00 | 0.00 | 82 | 1014.0 |
| 20260905154007 | 30 | 80 | 6.4 | 8.0 | 0.00 | 0.00 | 0.00 | 83 | 1014.4 |
| 20260905153503 | 30 | 108 | 8.0 | 9.7 | 0.00 | 0.00 | 0.00 | 83 | 1014.0 |
| 20260905153002 | 30 | 100 | 8.0 | 11.3 | 0.00 | 0.00 | 0.00 | 83 | 1014.0 |
| 20260905152502 | 30 | 60 | 1.6 | 3.2 | 0.00 | 0.00 | 0.00 | 82 | 1014.0 |
| 20260905151957 | 30 | 95 | 1.6 | 1.6 | 0.00 | 0.00 | 0.00 | 84 | 1014.0 |
| 20260905151453 | 30 | 91 | 9.7 | 12.9 | 0.00 | 0.00 | 0.00 | 84 | 1013.7 |
| 20260905150953 | 30 | 79 | 4.8 | 8.0 | 0.00 | 0.00 | 0.00 | 84 | 1013.7 |
| 20260905150448 | 28 | 101 | 8.0 | 12.9 | 0.00 | 0.00 | 0.00 | 86 | 1013.7 |
| 20260905145944 | 30 | 25 | 8.0 | 11.3 | 0.00 | 0.00 | 0.00 | 85 | 1013.7 |
| 20260905145439 | 30 | 81 | 1.6 | 1.6 | 0.00 | 0.00 | 0.00 | 83 | 1013.7 |
| 20260905144938 | 30 | 96 | 3.2 | 3.2 | 0.00 | 0.00 | 0.00 | 84 | 1013.7 |
| 20260905144434 | 30 | 41 | 3.2 | 8.0 | 0.00 | 0.00 | 0.00 | 84 | 1013.7 |
| 20260905143932 | 30 | 70 | 4.8 | 4.8 | 0.00 | 0.00 | 0.00 | 84 | 1013.7 |
| 20260905143427 | 28 | 92 | 4.8 | 4.8 | 0.00 | 0.00 | 0.00 | 85 | 1013.7 |
| 20260905142926 | 28 | 74 | 4.8 | 8.0 | 0.00 | 0.00 | 0.00 | 86 | 1013.7 |
| 20260905142425 | 28 | 67 | 6.4 | 9.7 | 0.00 | 0.00 | 0.00 | 87 | 1013.3 |
| 20260905141921 | 28 | 81 | 4.8 | 4.8 | 0.00 | 0.00 | 0.00 | 86 | 1013.3 |
| 20260905141416 | 28 | 77 | 3.2 | 3.2 | 0.00 | 0.00 | 0.00 | 87 | 1013.7 |
| 20260905140912 | 28 | 24 | 6.4 | 8.0 | 0.00 | 0.00 | 0.00 | 87 | 1013.7 |
| 20260905140407 | 28 | 64 | 3.2 | 4.8 | 0.00 | 0.00 | 0.00 | 87 | 1013.7 |
| 20260905135906 | 28 | 72 | 3.2 | 4.8 | 0.00 | 0.00 | 0.00 | 87 | 1013.7 |
| 20260905135402 | 28 | 63 | 6.4 | 9.7 | 0.00 | 0.00 | 0.00 | 86 | 1014.0 |
| 20260905134858 | 28 | 42 | 6.4 | 11.3 | 0.00 | 0.00 | 0.00 | 87 | 1014.4 |
| 20260905134356 | 28 | 71 | 11.3 | 12.9 | 0.00 | 0.00 | 0.00 | 85 | 1014.0 |
| 20260905133850 | 28 | 33 | 8.0 | 9.7 | 0.00 | 0.00 | 0.00 | 84 | 1014.0 |
| 20260905133346 | 28 | 30 | 8.0 | 8.0 | 0.00 | 0.00 | 0.00 | 83 | 1013.7 |
| 20260905132845 | 28 | 8 | 4.8 | 4.8 | 0.00 | 0.00 | 0.00 | 83 | 1013.7 |
| 20260905132341 | 28 | 33 | 6.4 | 8.0 | 0.00 | 0.00 | 0.00 | 83 | 1013.7 |
| 20260905131840 | 28 | 30 | 6.4 | 9.7 | 0.00 | 0.00 | 0.00 | 84 | 1013.3 |
| 20260905131336 | 27 | 1 | 6.4 | 8.0 | 0.00 | 0.00 | 0.00 | 86 | 1013.7 |
| 20260905130831 | 27 | 11 | 3.2 | 4.8 | 0.00 | 0.00 | 0.00 | 88 | 1013.3 |
| 20260905130330 | 27 | 11 | 3.2 | 3.2 | 0.00 | 0.00 | 0.00 | 89 | 1013.3 |
| 20260905125825 | 27 | 11 | 0.0 | 1.6 | 0.00 | 0.00 | 0.00 | 90 | 1013.3 |
| 20260905125320 | 27 | 11 | 4.8 | 4.8 | 0.00 | 0.00 | 0.00 | 90 | 1013.3 |
| 20260905124816 | 27 | 13 | 1.6 | 3.2 | 0.00 | 0.00 | 0.00 | 90 | 1013.0 |
| 20260905124312 | 27 | 13 | 3.2 | 3.2 | 0.00 | 0.00 | 0.00 | 90 | 1013.0 |
| 20260905123807 | 26 | 13 | 0.0 | 1.6 | 0.00 | 0.00 | 0.00 | 91 | 1013.3 |
| 20260905123304 | 26 | 13 | 1.6 | 1.6 | 0.00 | 0.00 | 0.00 | 91 | 1013.0 |
| 20260905122803 | 26 | 14 | 4.8 | 4.8 | 0.00 | 0.00 | 0.00 | 92 | 1013.0 |
| 20260905122306 | 26 | 67 | 1.6 | 1.6 | 0.00 | 0.00 | 0.00 | 93 | 1013.3 |
| 20260905121759 | 26 | 67 | 1.6 | 1.6 | 0.00 | 0.00 | 0.00 | 95 | 1013.0 |
| 20260905121255 | 25 | 67 | 0.0 | 0.0 | 0.00 | 0.00 | 0.00 | 96 | 1013.0 |
| 20260905120753 | 25 | 67 | 1.6 | 1.6 | 0.00 | 0.00 | 0.00 | 96 | 1013.0 |
| 20260905120253 | 25 | 67 | 1.6 | 1.6 | 0.00 | 0.00 | 0.00 | 96 | 1013.0 |
| 20260905115749 | 25 | 67 | 0.0 | 0.0 | 0.00 | 0.00 | 0.00 | 96 | 1012.7 |
| 20260905115248 | 25 | 67 | 0.0 | 0.0 | 0.00 | 0.00 | 0.00 | 96 | 1013.0 |
| 20260905114748 | 25 | 67 | 0.0 | 1.6 | 0.00 | 0.00 | 0.00 | 96 | 1012.7 |
| 20260905114247 | 25 | 67 | 0.0 | 0.0 | 0.00 | 0.00 | 0.00 | 96 | 1013.0 |
| 20260905113746 | 25 | 67 | 0.0 | 0.0 | 0.00 | 0.00 | 0.00 | 96 | 1013.0 |
| 20260905113242 | 25 | 67 | 0.0 | 0.0 | 0.00 | 0.00 | 0.00 | 96 | 1013.0 |